Terminal Aerodrome Forecast
Issued by NWS

Current Version | Previous Version | Text Only | Print | Product List | Glossary On
Versions: 1 2 3 4 5 6 7 8 9 10 11 12 13
000
FTUS46 KMTR 011700
TAFSJC
TAF
KSJC 011720Z 0118/0218 29004KT P6SM FEW250
     FM012000 32015G25KT P6SM FEW250
     FM020300 31009KT P6SM SKC
     FM020500 32005KT P6SM SKC=

USA.gov is the U.S. government's official web portal to all federal, state and local government web resources and services.